LRTM - TARGU MURES / TRANSILVANIA - TARGU MURES

Compiled: 18:00:14 on 22/07/2018

Latest METAR/SPECI Reports

SPECI LRTM 221740Z AUTO 23009KT 9999 FEW110/// BKN140/// 22/18 Q1009=

Previous reports

METAR LRTM 221730Z AUTO 08003KT 010V170 9999 FEW110/// BKN130/// 22/17 Q1009=
METAR LRTM 221700Z 28006KT 250V310 9999 VCSH SCT050CB 23/18 Q1009=
METAR LRTM 221630Z 25009KT 9999 VCSH SCT050CB 24/17 Q1009=
METAR LRTM 221600Z 26009KT 9999 VCSH SCT042 SCT047CB 25/18 Q1009=

Latest TAF report

TAF AMD LRTM 221706Z 2217/2224 CNL=

Valid WARNINGS

No valid warnings for LRTM